aviador You're here:

SKLT Decoded Metar

LETICIA in COLOMBIA
Report Time2017-11-20 23:00:00
UTC Time2017-11-20 23:06:01
Flight Rules vfr VFR
WindCalm
Visibility9999 m
Phenomena:N/A
Clouds:Few 020 Hf
Broken 200 Hf
Expected CloudBase > 400 ft AGL from Temp-Dew spread
Ceiling20,000 ft
Temp28°C (ISA +14)
Dew Point27°C (94% RH)
Heat Index34.5°C
QNH1006 hPa
Density Alt2,539 ft
Elevation276 ft
Report Wrong Elevation
Raw Report
METAR SKLT 202300Z 00000KT 9999 FEW020 BKN200 28/27 A2971=

Extra information for SKLT:More info

Metar Taf Metar & Taf Last 4 Metars F.Rules Stats Wind Profile Meteogram Temp Stats Airport Information Weather charts Add Link Nearby VenuesMetar ALERT Operation Metar Decoded Social comments